Airfield :
LOGIN :

Register | Disclaimer

   EN    FR    IT 

 










Legend :    VFR   Marginal VFR   IFR   Intensive IFR   Very Intensive IFR
Visi :
Ceiling :
>= 8 km
>= 3000ft
5 to 8 km
1000 to 3000 ft
1500m to 5 km
500 to 1000 ft
800 to 1500m
200 to 500 ft
< 800m
< 200 ft
Symbols :   Thunderstorms  Fog  Heavy snow  Heavy precipitations  Wind > 20 kt
SIGMETs :     Misc.  Thunderstorms  Icing  Turbulence  Mountain Waves  Volcanic Ashes






- Airport Elevation : 160 ft
- IATA code : LRT


LFRH - Lorient Lann Bihoue

CURRENT METAR :
  • 221400Z AUTO 06004KT 030V100 9999 OVC023 07/03 Q1038 TEMPO BKN014

EXPIRED METARs :
  • 221330Z AUTO 03002KT 9999 OVC023 06/03 Q1038 TEMPO BKN014
  • 221300Z AUTO VRB01KT 9999 OVC023 06/02 Q1038 NOSIG
  • 221230Z AUTO VRB02KT 9999 OVC024 06/02 Q1038 NOSIG
  • 221200Z AUTO VRB02KT 9999 OVC024 06/02 Q1039 NOSIG
  • 221130Z AUTO VRB02KT 9999 OVC025 05/02 Q1039 NOSIG

TAF TAF LFRH
Valid from the 22 at 12:00 until the 23 at 12:00 UTC


221100Z 2212/2312 04005KT 9999 OVC025
TEMPO 2215/2219 BKN014
PROB30
TEMPO 2222/2304 4000 BR
PROB40
TEMPO 2304/2309 2500 BR
BECMG 2304/2306 BKN008
TEMPO 2305/2310 BKN003
PROB30
TEMPO 2305/2306 0600 FG VV///



MET'MAP, your aeronautical weather chart ! - Copyright ORBIFLY December 2007 - Disclaimer

ORBIFLY MET'MAP TEAM :

Programming & Development : Alexandra Zaïnal
Concept & original design : Baudouin d'Aumeries
Assistance for programming : Marc-Olivier Méhu
Technical & hardware support : Manuel Goepfert

Contact : metmap@orbifly.com




SOURCES & CREDITS :

   NOAA